createdAt,value
2023-03-10T00:02:11.446Z,5.12
2023-03-10T00:05:20.042Z,5.12
2023-03-10T00:08:27.181Z,5.23
2023-03-10T00:11:37.111Z,5.29
2023-03-10T00:14:43.502Z,5.27
2023-03-10T00:17:55.888Z,5.23
2023-03-10T00:21:01.982Z,5.15
2023-03-10T00:24:09.303Z,5.11
2023-03-10T00:27:17.883Z,5.20
2023-03-10T00:30:24.989Z,5.14
2023-03-10T00:33:31.062Z,5.16
2023-03-10T00:36:38.167Z,5.25
2023-03-10T00:39:44.138Z,5.13
2023-03-10T00:43:00.969Z,5.22
2023-03-10T00:46:08.137Z,5.20
2023-03-10T00:49:19.936Z,5.19
2023-03-10T00:52:25.856Z,5.33
2023-03-10T00:55:32.731Z,5.35
2023-03-10T00:58:42.059Z,5.34
2023-03-10T01:01:48.896Z,5.41
2023-03-10T01:04:55.291Z,5.51
2023-03-10T01:08:01.981Z,5.62
2023-03-10T01:11:08.419Z,5.72
2023-03-10T01:14:20.654Z,5.69
2023-03-10T01:17:27.785Z,5.70
2023-03-10T01:20:38.212Z,5.81
2023-03-10T01:23:44.169Z,5.81
2023-03-10T01:26:51.069Z,5.76
2023-03-10T01:29:59.777Z,5.91
2023-03-10T01:33:06.747Z,5.91
2023-03-10T01:36:16.150Z,5.86
2023-03-10T01:39:25.524Z,5.88
2023-03-10T01:42:31.567Z,5.85
2023-03-10T01:46:31.911Z,5.88
2023-03-10T01:49:48.479Z,6.01
2023-03-10T01:52:58.698Z,5.98
2023-03-10T01:56:09.740Z,5.96
2023-03-10T01:59:18.722Z,5.86
2023-03-10T02:02:25.373Z,5.83
2023-03-10T02:05:35.813Z,5.81
2023-03-10T02:08:48.654Z,5.69
2023-03-10T02:11:55.983Z,5.66
2023-03-10T02:15:02.336Z,5.54
2023-03-10T02:18:14.876Z,5.47
2023-03-10T02:21:46.215Z,5.34
2023-03-10T02:25:02.710Z,5.42
2023-03-10T02:28:12.097Z,5.35
2023-03-10T02:31:22.421Z,5.27
2023-03-10T02:34:31.547Z,5.17
2023-03-10T02:37:40.185Z,5.10
2023-03-10T02:40:50.978Z,5.05
2023-03-10T02:44:11.025Z,5.02
2023-03-10T02:47:17.375Z,4.94
2023-03-10T02:50:30.204Z,4.99
2023-03-10T02:53:36.236Z,4.94
2023-03-10T02:56:43.916Z,4.94
2023-03-10T02:59:53.379Z,4.87
2023-03-10T03:03:01.156Z,4.90
2023-03-10T03:06:08.600Z,4.96
2023-03-10T03:09:15.830Z,5.02
2023-03-10T03:12:23.238Z,5.00
2023-03-10T03:15:33.837Z,5.01
2023-03-10T03:18:41.468Z,4.99
2023-03-10T03:21:51.260Z,4.93
2023-03-10T03:24:57.342Z,4.94
2023-03-10T03:28:04.312Z,4.95
2023-03-10T03:31:18.762Z,4.84
2023-03-10T03:35:25.279Z,4.68
2023-03-10T03:38:32.950Z,4.56
2023-03-10T03:41:42.277Z,4.41
2023-03-10T03:44:50.124Z,4.30
2023-03-10T03:48:00.494Z,4.20
2023-03-10T03:51:09.548Z,4.13
2023-03-10T03:54:20.329Z,4.13
2023-03-10T03:57:29.342Z,4.13
2023-03-10T04:00:40.364Z,4.13
2023-03-10T04:03:51.507Z,4.12
2023-03-10T04:06:58.722Z,4.03
2023-03-10T04:10:05.490Z,4.06
2023-03-10T04:13:12.516Z,4.06
2023-03-10T04:16:18.718Z,3.97
2023-03-10T04:19:30.389Z,3.95
2023-03-10T04:22:45.133Z,3.91
2023-03-10T04:25:52.627Z,3.82
2023-03-10T04:28:59.741Z,3.78
2023-03-10T04:32:09.508Z,3.85
2023-03-10T04:35:22.172Z,3.97
2023-03-10T04:38:29.018Z,3.85
2023-03-10T04:41:35.201Z,3.82
2023-03-10T04:44:42.132Z,3.70
2023-03-10T04:47:48.116Z,3.63
2023-03-10T04:51:05.544Z,3.54
2023-03-10T04:54:16.139Z,3.42
2023-03-10T04:57:24.751Z,3.32
2023-03-10T05:00:32.448Z,3.11
2023-03-10T05:03:39.690Z,3.06
2023-03-10T05:06:54.070Z,2.98
2023-03-10T05:10:06.253Z,3.01
2023-03-10T05:13:13.147Z,3.08
2023-03-10T05:16:24.643Z,3.00
2023-03-10T05:19:32.592Z,3.08
2023-03-10T05:22:43.309Z,3.17
2023-03-10T05:25:52.696Z,3.22
2023-03-10T05:29:01.575Z,3.40
2023-03-10T05:32:17.599Z,3.51
2023-03-10T05:35:27.324Z,3.61
2023-03-10T05:38:39.518Z,3.71
2023-03-10T05:41:51.625Z,3.77
2023-03-10T05:44:58.506Z,3.69
2023-03-10T05:48:05.782Z,3.73
2023-03-10T05:51:15.494Z,3.78
2023-03-10T05:54:25.749Z,3.81
2023-03-10T05:57:32.189Z,3.88
2023-03-10T06:00:39.265Z,3.99
2023-03-10T06:03:52.211Z,4.35
2023-03-10T06:07:00.815Z,4.63
2023-03-10T06:10:30.114Z,4.95
2023-03-10T06:13:36.969Z,5.04
2023-03-10T06:16:45.134Z,5.15
2023-03-10T06:19:52.635Z,5.43
2023-03-10T06:22:59.121Z,5.62
2023-03-10T06:26:12.309Z,6.02
2023-03-10T06:29:18.196Z,6.53
2023-03-10T06:32:25.145Z,7.01
2023-03-10T06:35:32.404Z,6.77
2023-03-10T06:38:39.412Z,6.63
2023-03-10T06:41:48.040Z,7.03
2023-03-10T06:44:57.932Z,7.28
2023-03-10T06:48:03.740Z,7.55
2023-03-10T06:51:22.376Z,8.04
2023-03-10T06:54:28.701Z,8.02
2023-03-10T06:57:40.255Z,7.77
2023-03-10T07:00:49.454Z,8.05
2023-03-10T07:03:57.112Z,8.31
2023-03-10T07:07:15.229Z,8.65
2023-03-10T07:10:23.395Z,7.94
2023-03-10T07:13:31.897Z,7.72
2023-03-10T07:16:38.816Z,7.57
2023-03-10T07:19:47.865Z,7.40
2023-03-10T07:22:55.375Z,7.42
2023-03-10T07:26:01.618Z,7.58
2023-03-10T07:29:15.920Z,8.70
2023-03-10T07:32:21.754Z,9.13
2023-03-10T07:35:28.858Z,9.58
2023-03-10T07:38:35.832Z,9.47
2023-03-10T07:41:42.792Z,9.28
2023-03-10T07:44:53.648Z,9.14
2023-03-10T07:48:00.441Z,9.57
2023-03-10T07:51:06.806Z,9.57
2023-03-10T07:54:16.248Z,9.78
2023-03-10T07:57:22.241Z,9.60
2023-03-10T08:00:31.805Z,9.27
2023-03-10T08:03:38.392Z,9.50
2023-03-10T08:06:48.069Z,9.63
2023-03-10T08:09:54.592Z,9.73
2023-03-10T08:13:01.530Z,9.65
2023-03-10T08:16:11.873Z,10.14
2023-03-10T08:19:18.722Z,10.24
2023-03-10T08:22:24.601Z,10.52
2023-03-10T08:25:32.005Z,10.68
2023-03-10T08:28:39.060Z,10.91
2023-03-10T08:31:49.347Z,10.90
2023-03-10T08:34:55.252Z,10.59
2023-03-10T08:38:02.068Z,10.82
2023-03-10T08:41:21.422Z,11.10
2023-03-10T08:44:28.409Z,11.06
2023-03-10T08:47:37.183Z,11.60
2023-03-10T08:50:44.349Z,11.94
2023-03-10T08:53:56.349Z,11.10
2023-03-10T08:57:03.211Z,11.10
2023-03-10T09:00:14.847Z,10.89
2023-03-10T09:03:25.933Z,10.72
2023-03-10T09:06:33.688Z,11.16
2023-03-10T09:09:40.498Z,11.52
2023-03-10T09:12:46.430Z,11.80
2023-03-10T09:15:53.329Z,12.14
2023-03-10T09:19:08.320Z,12.42
2023-03-10T09:22:15.112Z,12.14
2023-03-10T09:25:21.068Z,12.12
2023-03-10T09:28:28.013Z,12.39
2023-03-10T09:31:38.437Z,12.61
2023-03-10T09:34:48.388Z,12.52
2023-03-10T09:37:54.286Z,12.51
2023-03-10T09:41:25.350Z,12.38
2023-03-10T09:44:43.650Z,12.43
2023-03-10T09:48:14.628Z,12.33
2023-03-10T09:51:28.732Z,12.40
2023-03-10T09:54:55.701Z,12.19
2023-03-10T09:58:03.978Z,12.37
2023-03-10T10:01:21.595Z,12.26
2023-03-10T10:04:40.903Z,12.13
2023-03-10T10:07:57.873Z,12.23
2023-03-10T10:11:06.537Z,12.69
2023-03-10T10:14:28.815Z,12.82
2023-03-10T10:18:02.934Z,12.65
2023-03-10T10:21:41.771Z,12.59
2023-03-10T10:25:19.195Z,13.20
2023-03-10T10:28:42.362Z,13.68
2023-03-10T10:32:09.083Z,14.25
2023-03-10T10:35:26.238Z,14.22
2023-03-10T10:38:36.330Z,13.66
2023-03-10T10:41:45.664Z,13.25
2023-03-10T10:44:55.776Z,13.31
2023-03-10T10:48:02.867Z,13.24
2023-03-10T10:51:27.461Z,13.43
2023-03-10T10:54:43.941Z,13.51
2023-03-10T10:58:01.715Z,13.57
2023-03-10T11:01:12.691Z,13.47
2023-03-10T11:04:18.793Z,13.65
2023-03-10T11:07:30.138Z,13.75
2023-03-10T11:10:38.300Z,14.18
2023-03-10T11:14:08.643Z,14.67
2023-03-10T11:17:25.505Z,14.75
2023-03-10T11:20:47.012Z,14.90
2023-03-10T11:24:12.658Z,15.18
2023-03-10T11:27:34.263Z,14.88
2023-03-10T11:30:58.408Z,14.83
2023-03-10T11:34:25.920Z,14.57
2023-03-10T11:37:45.869Z,14.45
2023-03-10T11:40:58.445Z,14.29
2023-03-10T11:44:24.169Z,14.24
2023-03-10T11:47:54.631Z,14.78
2023-03-10T11:51:04.469Z,15.14
2023-03-10T11:54:25.685Z,14.96
2023-03-10T11:57:42.806Z,14.34
2023-03-10T12:00:53.982Z,14.29
2023-03-10T12:04:19.442Z,14.07
2023-03-10T12:07:32.816Z,14.06
2023-03-10T12:10:45.568Z,13.71
2023-03-10T12:13:59.710Z,13.35
2023-03-10T12:17:08.643Z,13.54
2023-03-10T12:20:37.214Z,13.73
2023-03-10T12:23:45.834Z,14.12
2023-03-10T12:27:07.573Z,14.25
2023-03-10T12:30:51.339Z,14.09
2023-03-10T12:34:18.904Z,13.88
2023-03-10T12:37:28.379Z,13.92
2023-03-10T12:40:55.203Z,13.62
2023-03-10T12:44:03.472Z,13.44
2023-03-10T12:47:46.323Z,13.41
2023-03-10T12:51:03.118Z,12.86
2023-03-10T12:54:57.401Z,12.42
2023-03-10T12:58:25.584Z,12.21
2023-03-10T13:01:55.198Z,12.13
2023-03-10T13:05:08.351Z,12.02
2023-03-10T13:08:27.435Z,12.02
2023-03-10T13:11:44.150Z,12.05
2023-03-10T13:14:59.153Z,12.04
2023-03-10T13:18:22.620Z,12.24
2023-03-10T13:21:34.385Z,12.39
2023-03-10T13:24:42.532Z,12.64
2023-03-10T13:27:52.835Z,12.61
2023-03-10T13:31:26.538Z,12.60
2023-03-10T13:34:36.990Z,12.55
2023-03-10T13:37:42.927Z,12.40
2023-03-10T13:40:52.823Z,12.42
2023-03-10T13:44:01.663Z,12.40
2023-03-10T13:47:20.650Z,12.52
2023-03-10T13:50:28.196Z,12.53
2023-03-10T13:53:36.462Z,12.48
2023-03-10T13:56:46.477Z,12.51
2023-03-10T14:00:00.003Z,12.65
2023-03-10T14:03:06.670Z,12.78
2023-03-10T14:06:17.349Z,12.90
2023-03-10T14:09:26.286Z,13.08
2023-03-10T14:12:42.846Z,13.15
2023-03-10T14:15:59.252Z,12.94
2023-03-10T14:19:06.057Z,12.86
2023-03-10T14:22:32.324Z,12.92
2023-03-10T14:25:44.755Z,13.03
2023-03-10T14:28:50.671Z,12.89
2023-03-10T14:32:00.149Z,13.11
2023-03-10T14:35:11.888Z,13.10
2023-03-10T14:38:20.149Z,13.18
2023-03-10T14:41:28.544Z,12.96
2023-03-10T14:44:36.887Z,12.92
2023-03-10T14:47:45.841Z,13.20
2023-03-10T14:50:56.584Z,13.13
2023-03-10T14:54:03.026Z,13.02
2023-03-10T14:57:10.264Z,13.03
2023-03-10T15:00:21.642Z,13.06
2023-03-10T15:03:31.454Z,13.13
2023-03-10T15:06:37.786Z,12.98
2023-03-10T15:09:44.744Z,12.90
2023-03-10T15:12:54.116Z,12.61
2023-03-10T15:16:01.733Z,12.39
2023-03-10T15:19:15.389Z,12.42
2023-03-10T15:22:22.337Z,12.22
2023-03-10T15:25:28.711Z,12.23
2023-03-10T15:28:36.400Z,12.20
2023-03-10T15:31:43.517Z,12.25
2023-03-10T15:34:53.301Z,12.17
2023-03-10T15:38:02.875Z,12.20
2023-03-10T15:41:10.578Z,12.06
2023-03-10T15:44:16.724Z,11.89
2023-03-10T15:47:23.376Z,12.08
2023-03-10T15:50:31.966Z,12.20
2023-03-10T15:53:53.501Z,12.04
2023-03-10T15:56:59.503Z,11.95
2023-03-10T16:00:07.214Z,11.92
2023-03-10T16:03:18.029Z,11.71
2023-03-10T16:06:31.890Z,11.56
2023-03-10T16:09:37.924Z,11.49
2023-03-10T16:12:46.482Z,11.55
2023-03-10T16:15:52.997Z,11.40
2023-03-10T16:18:59.960Z,11.31
2023-03-10T16:22:10.659Z,11.29
2023-03-10T16:25:21.572Z,11.24
2023-03-10T16:28:27.641Z,11.14
2023-03-10T16:31:35.380Z,11.10
2023-03-10T16:34:41.511Z,10.93
2023-03-10T16:37:50.940Z,10.93
2023-03-10T16:40:58.146Z,10.69
2023-03-10T16:44:08.025Z,10.73
2023-03-10T16:47:15.725Z,10.64
2023-03-10T16:50:24.367Z,10.51
2023-03-10T16:53:33.033Z,10.54
2023-03-10T16:56:44.165Z,10.40
2023-03-10T16:59:56.472Z,10.24
2023-03-10T17:03:04.513Z,10.02
2023-03-10T17:06:13.516Z,9.80
2023-03-10T17:09:23.117Z,9.44
2023-03-10T17:12:29.203Z,9.36
2023-03-10T17:15:36.009Z,9.29
2023-03-10T17:18:42.149Z,9.27
2023-03-10T17:21:52.684Z,9.09
2023-03-10T17:25:02.182Z,8.95
2023-03-10T17:28:11.383Z,8.93
2023-03-10T17:31:20.907Z,8.85
2023-03-10T17:34:29.587Z,8.76
2023-03-10T17:37:35.631Z,8.68
2023-03-10T17:40:46.364Z,8.65
2023-03-10T17:43:53.044Z,8.52
2023-03-10T17:47:00.001Z,8.54
2023-03-10T17:50:06.774Z,8.38
2023-03-10T17:53:16.515Z,8.29
2023-03-10T17:56:25.209Z,8.25
2023-03-10T17:59:33.016Z,8.17
2023-03-10T18:02:39.042Z,8.08
2023-03-10T18:05:47.841Z,7.96
2023-03-10T18:08:56.464Z,7.98
2023-03-10T18:12:06.461Z,7.93
2023-03-10T18:15:15.359Z,7.92
2023-03-10T18:18:22.242Z,7.81
2023-03-10T18:21:29.828Z,7.84
2023-03-10T18:24:36.677Z,7.80
2023-03-10T18:27:46.115Z,7.71
2023-03-10T18:30:55.013Z,7.67
2023-03-10T18:34:01.340Z,7.63
2023-03-10T18:37:08.390Z,7.59
2023-03-10T18:40:19.740Z,7.53
2023-03-10T18:43:32.315Z,7.55
2023-03-10T18:46:38.409Z,7.53
2023-03-10T18:49:45.574Z,7.47
2023-03-10T18:52:51.633Z,7.45
2023-03-10T18:56:03.156Z,7.33
2023-03-10T18:59:13.498Z,7.30
2023-03-10T19:02:20.619Z,7.33
2023-03-10T19:05:26.677Z,7.20
2023-03-10T19:08:34.542Z,7.27
2023-03-10T19:11:41.822Z,7.21
2023-03-10T19:14:51.326Z,7.15
2023-03-10T19:17:59.006Z,7.09
2023-03-10T19:21:09.764Z,7.12
2023-03-10T19:24:15.826Z,6.96
2023-03-10T19:27:22.852Z,7.01
2023-03-10T19:30:32.041Z,6.95
2023-03-10T19:33:40.006Z,6.96
2023-03-10T19:36:46.126Z,6.98
2023-03-10T19:39:53.157Z,6.93
2023-03-10T19:42:59.959Z,6.86
2023-03-10T19:46:12.927Z,6.71
2023-03-10T19:49:19.385Z,6.64
2023-03-10T19:52:26.859Z,6.60
2023-03-10T19:55:33.353Z,6.53
2023-03-10T19:58:40.772Z,6.55
2023-03-10T20:01:49.753Z,6.53
2023-03-10T20:04:56.738Z,6.51
2023-03-10T20:08:02.959Z,6.56
2023-03-10T20:11:13.739Z,6.62
2023-03-10T20:14:19.952Z,6.65
2023-03-10T20:17:30.823Z,6.67
2023-03-10T20:20:37.423Z,6.66
2023-03-10T20:23:47.780Z,6.70
2023-03-10T20:26:53.879Z,6.82
2023-03-10T20:30:00.865Z,6.84
2023-03-10T20:33:11.915Z,6.95
2023-03-10T20:36:18.933Z,6.95
2023-03-10T20:39:24.951Z,7.04
2023-03-10T20:42:31.878Z,7.09
2023-03-10T20:45:39.009Z,7.11
2023-03-10T20:48:48.876Z,7.09
2023-03-10T20:51:55.141Z,7.11
2023-03-10T20:55:02.200Z,7.16
2023-03-10T20:58:09.173Z,7.17
2023-03-10T21:01:19.704Z,7.21
2023-03-10T21:04:28.557Z,7.16
2023-03-10T21:07:35.947Z,7.11
2023-03-10T21:10:44.983Z,7.10
2023-03-10T21:13:53.189Z,7.18
2023-03-10T21:17:00.241Z,7.23
2023-03-10T21:20:13.760Z,7.25
2023-03-10T21:23:19.857Z,7.24
2023-03-10T21:26:27.211Z,7.24
2023-03-10T21:29:33.337Z,7.29
2023-03-10T21:32:41.161Z,7.27
2023-03-10T21:35:49.921Z,7.32
2023-03-10T21:38:57.131Z,7.38
2023-03-10T21:42:03.311Z,7.40
2023-03-10T21:45:14.643Z,7.46
2023-03-10T21:48:20.772Z,7.48
2023-03-10T21:51:33.813Z,7.53
2023-03-10T21:54:40.181Z,7.57
2023-03-10T21:57:46.963Z,7.53
2023-03-10T22:00:56.054Z,7.58
2023-03-10T22:04:03.046Z,7.55
2023-03-10T22:07:11.684Z,7.46
2023-03-10T22:10:19.891Z,7.52
2023-03-10T22:13:25.936Z,7.38
2023-03-10T22:16:33.128Z,7.36
2023-03-10T22:19:39.209Z,7.34
2023-03-10T22:22:48.788Z,7.28
2023-03-10T22:25:54.817Z,7.19
2023-03-10T22:29:01.616Z,7.07
2023-03-10T22:32:08.958Z,7.05
2023-03-10T22:35:16.720Z,6.95
2023-03-10T22:38:25.595Z,6.93
2023-03-10T22:41:32.312Z,6.98
2023-03-10T22:44:39.954Z,6.85
2023-03-10T22:47:47.046Z,6.75
2023-03-10T22:50:53.403Z,6.64
2023-03-10T22:54:03.265Z,6.62
2023-03-10T22:57:09.939Z,6.60
2023-03-10T23:00:22.606Z,6.47
2023-03-10T23:03:28.757Z,6.40
2023-03-10T23:06:36.248Z,6.29
2023-03-10T23:09:46.208Z,6.26
2023-03-10T23:12:54.733Z,6.25
2023-03-10T23:16:01.178Z,6.19
2023-03-10T23:19:08.961Z,6.10
2023-03-10T23:22:14.777Z,6.12
2023-03-10T23:25:27.615Z,6.02
2023-03-10T23:28:33.712Z,6.10
2023-03-10T23:31:40.561Z,6.14
2023-03-10T23:34:46.741Z,6.24
2023-03-10T23:37:54.266Z,6.27
2023-03-10T23:41:02.832Z,6.29
2023-03-10T23:44:09.983Z,6.27
2023-03-10T23:47:18.791Z,6.32
2023-03-10T23:50:30.302Z,6.35
2023-03-10T23:53:36.399Z,6.33
2023-03-10T23:56:45.835Z,6.39
2023-03-10T23:59:52.042Z,6.43
